sensor_id;sensor_type;location;lat;lon;timestamp;pressure;altitude;pressure_sealevel;temperature;humidity
36242;BME280;22283;42.748;12.732;2023-01-28T00:00:35;97512.03;;;4.06;63.95
36242;BME280;22283;42.748;12.732;2023-01-28T00:05:36;97518.97;;;3.91;64.79
36242;BME280;22283;42.748;12.732;2023-01-28T00:10:37;97516.28;;;3.93;64.94
36242;BME280;22283;42.748;12.732;2023-01-28T00:15:40;97518.97;;;3.91;64.38
36242;BME280;22283;42.748;12.732;2023-01-28T00:20:41;97520.69;;;3.77;65.68
36242;BME280;22283;42.748;12.732;2023-01-28T00:25:41;97526.25;;;3.86;65.43
36242;BME280;22283;42.748;12.732;2023-01-28T00:30:42;97511.13;;;3.91;64.90
36242;BME280;22283;42.748;12.732;2023-01-28T00:35:42;97517.47;;;3.87;64.80
36242;BME280;22283;42.748;12.732;2023-01-28T00:40:43;97514.59;;;3.92;64.84
36242;BME280;22283;42.748;12.732;2023-01-28T00:45:44;97513.16;;;3.86;64.77
36242;BME280;22283;42.748;12.732;2023-01-28T00:50:45;97513.16;;;3.86;64.72
36242;BME280;22283;42.748;12.732;2023-01-28T00:55:45;97511.06;;;3.77;66.12
36242;BME280;22283;42.748;12.732;2023-01-28T01:00:46;97538.06;;;3.62;69.96
36242;BME280;22283;42.748;12.732;2023-01-28T01:05:47;97526.06;;;3.26;74.42
36242;BME280;22283;42.748;12.732;2023-01-28T01:10:47;97544.63;;;3.04;78.27
36242;BME280;22283;42.748;12.732;2023-01-28T01:15:48;97553.81;;;2.78;80.87
36242;BME280;22283;42.748;12.732;2023-01-28T01:20:48;97556.59;;;2.75;81.14
36242;BME280;22283;42.748;12.732;2023-01-28T01:25:50;97566.88;;;2.78;80.70
36242;BME280;22283;42.748;12.732;2023-01-28T01:30:58;97550.56;;;2.90;82.01
36242;BME280;22283;42.748;12.732;2023-01-28T01:35:59;97567.63;;;2.80;83.05
36242;BME280;22283;42.748;12.732;2023-01-28T01:41:00;97568.72;;;2.76;84.75
36242;BME280;22283;42.748;12.732;2023-01-28T01:46:02;97582.72;;;2.75;85.72
36242;BME280;22283;42.748;12.732;2023-01-28T01:51:09;97570.72;;;2.71;86.46
36242;BME280;22283;42.748;12.732;2023-01-28T01:56:14;97574.19;;;2.71;86.46
36242;BME280;22283;42.748;12.732;2023-01-28T02:01:19;97575.16;;;2.69;87.46
36242;BME280;22283;42.748;12.732;2023-01-28T02:06:22;97577.13;;;2.65;87.64
36242;BME280;22283;42.748;12.732;2023-01-28T02:11:29;97577.03;;;2.67;89.62
36242;BME280;22283;42.748;12.732;2023-01-28T02:16:32;97569.66;;;2.58;91.73
36242;BME280;22283;42.748;12.732;2023-01-28T02:31:54;97580.25;;;2.55;92.20
36242;BME280;22283;42.748;12.732;2023-01-28T02:37:14;97569.81;;;2.55;92.94
36242;BME280;22283;42.748;12.732;2023-01-28T02:42:20;97566.41;;;2.53;93.16
36242;BME280;22283;42.748;12.732;2023-01-28T02:47:22;97556.88;;;2.52;93.73
36242;BME280;22283;42.748;12.732;2023-01-28T02:58:41;97577.03;;;2.50;96.21
36242;BME280;22283;42.748;12.732;2023-01-28T03:08:53;97574.78;;;2.42;94.61
36242;BME280;22283;42.748;12.732;2023-01-28T03:14:29;97568.88;;;2.38;93.90
36242;BME280;22283;42.748;12.732;2023-01-28T03:19:50;97564.97;;;2.30;95.77
36242;BME280;22283;42.748;12.732;2023-01-28T03:25:10;97563.63;;;2.21;95.81
36242;BME280;22283;42.748;12.732;2023-01-28T03:31:28;97569.69;;;2.21;97.30
36242;BME280;22283;42.748;12.732;2023-01-28T03:36:25;97558.75;;;2.13;99.79
36242;BME280;22283;42.748;12.732;2023-01-28T03:42:31;97560.06;;;2.05;100.00
36242;BME280;22283;42.748;12.732;2023-01-28T03:47:34;97572.19;;;2.06;100.00
36242;BME280;22283;42.748;12.732;2023-01-28T03:52:37;97571.34;;;2.05;99.25
36242;BME280;22283;42.748;12.732;2023-01-28T03:57:51;97573.41;;;1.99;99.87
36242;BME280;22283;42.748;12.732;2023-01-28T04:02:51;97570.47;;;1.87;100.00
36242;BME280;22283;42.748;12.732;2023-01-28T04:07:54;97582.88;;;1.82;100.00
36242;BME280;22283;42.748;12.732;2023-01-28T04:13:15;97574.34;;;1.79;100.00
36242;BME280;22283;42.748;12.732;2023-01-28T04:18:16;97562.88;;;1.64;100.00
36242;BME280;22283;42.748;12.732;2023-01-28T04:23:17;97590.41;;;1.69;100.00
36242;BME280;22283;42.748;12.732;2023-01-28T04:28:18;97585.13;;;1.71;100.00
36242;BME280;22283;42.748;12.732;2023-01-28T04:33:18;97596.63;;;1.67;100.00
36242;BME280;22283;42.748;12.732;2023-01-28T04:38:43;97590.25;;;1.54;100.00
36242;BME280;22283;42.748;12.732;2023-01-28T04:44:02;97592.94;;;1.52;100.00
36242;BME280;22283;42.748;12.732;2023-01-28T04:49:09;97585.19;;;1.32;100.00
36242;BME280;22283;42.748;12.732;2023-01-28T04:54:18;97609.28;;;1.37;100.00
36242;BME280;22283;42.748;12.732;2023-01-28T04:59:19;97601.63;;;1.13;100.00
36242;BME280;22283;42.748;12.732;2023-01-28T05:04:19;97609.72;;;1.07;100.00
36242;BME280;22283;42.748;12.732;2023-01-28T05:09:20;97620.84;;;0.90;100.00
36242;BME280;22283;42.748;12.732;2023-01-28T05:14:23;97624.03;;;0.77;100.00
36242;BME280;22283;42.748;12.732;2023-01-28T05:19:39;97624.34;;;0.69;100.00
36242;BME280;22283;42.748;12.732;2023-01-28T05:24:47;97637.28;;;0.50;100.00
36242;BME280;22283;42.748;12.732;2023-01-28T05:29:48;97635.59;;;0.49;100.00
36242;BME280;22283;42.748;12.732;2023-01-28T05:34:49;97639.41;;;0.40;100.00
36242;BME280;22283;42.748;12.732;2023-01-28T05:39:49;97644.44;;;0.45;100.00
36242;BME280;22283;42.748;12.732;2023-01-28T05:44:50;97648.81;;;0.44;100.00
36242;BME280;22283;42.748;12.732;2023-01-28T05:50:13;97654.22;;;0.38;100.00
36242;BME280;22283;42.748;12.732;2023-01-28T05:55:20;97662.31;;;0.32;100.00
36242;BME280;22283;42.748;12.732;2023-01-28T06:00:20;97666.81;;;0.27;100.00
36242;BME280;22283;42.748;12.732;2023-01-28T06:05:21;97663.38;;;0.27;100.00
36242;BME280;22283;42.748;12.732;2023-01-28T06:10:22;97671.44;;;0.20;100.00
36242;BME280;22283;42.748;12.732;2023-01-28T06:15:22;97684.06;;;0.30;100.00
36242;BME280;22283;42.748;12.732;2023-01-28T06:20:52;97703.38;;;0.24;100.00
36242;BME280;22283;42.748;12.732;2023-01-28T06:25:56;97699.88;;;0.25;100.00
36242;BME280;22283;42.748;12.732;2023-01-28T06:30:58;97709.06;;;0.34;100.00
36242;BME280;22283;42.748;12.732;2023-01-28T06:36:01;97706.38;;;0.35;100.00
36242;BME280;22283;42.748;12.732;2023-01-28T06:41:02;97721.66;;;0.44;100.00
36242;BME280;22283;42.748;12.732;2023-01-28T06:46:03;97721.41;;;0.51;100.00
36242;BME280;22283;42.748;12.732;2023-01-28T06:51:04;97720.34;;;0.56;100.00
36242;BME280;22283;42.748;12.732;2023-01-28T06:56:05;97732.91;;;0.67;100.00
36242;BME280;22283;42.748;12.732;2023-01-28T07:01:07;97734.25;;;0.77;100.00
36242;BME280;22283;42.748;12.732;2023-01-28T07:06:08;97745.50;;;1.00;100.00
36242;BME280;22283;42.748;12.732;2023-01-28T07:11:09;97750.97;;;1.14;100.00
36242;BME280;22283;42.748;12.732;2023-01-28T07:16:09;97749.38;;;1.32;100.00
36242;BME280;22283;42.748;12.732;2023-01-28T07:21:10;97752.31;;;1.44;100.00
36242;BME280;22283;42.748;12.732;2023-01-28T07:26:11;97760.31;;;1.60;100.00
36242;BME280;22283;42.748;12.732;2023-01-28T07:31:11;97764.69;;;1.80;100.00
36242;BME280;22283;42.748;12.732;2023-01-28T07:36:12;97762.38;;;1.93;100.00
36242;BME280;22283;42.748;12.732;2023-01-28T07:41:12;97769.59;;;2.07;100.00
36242;BME280;22283;42.748;12.732;2023-01-28T07:46:13;97773.94;;;2.45;100.00
36242;BME280;22283;42.748;12.732;2023-01-28T07:51:14;97783.16;;;3.08;100.00
36242;BME280;22283;42.748;12.732;2023-01-28T07:56:14;97788.41;;;3.42;100.00
36242;BME280;22283;42.748;12.732;2023-01-28T08:01:15;97795.34;;;3.78;96.58
36242;BME280;22283;42.748;12.732;2023-01-28T08:06:16;97796.97;;;4.14;89.78
36242;BME280;22283;42.748;12.732;2023-01-28T08:11:16;97805.00;;;4.44;83.05
36242;BME280;22283;42.748;12.732;2023-01-28T08:16:17;97804.34;;;4.72;77.80
36242;BME280;22283;42.748;12.732;2023-01-28T08:21:17;97812.38;;;5.01;75.45
36242;BME280;22283;42.748;12.732;2023-01-28T08:26:18;97808.59;;;5.36;71.52
36242;BME280;22283;42.748;12.732;2023-01-28T08:31:18;97814.72;;;5.67;66.50
36242;BME280;22283;42.748;12.732;2023-01-28T08:36:19;97819.25;;;5.79;64.27
36242;BME280;22283;42.748;12.732;2023-01-28T08:41:21;97819.25;;;5.79;64.55
36242;BME280;22283;42.748;12.732;2023-01-28T08:46:21;97821.91;;;5.94;63.55
36242;BME280;22283;42.748;12.732;2023-01-28T08:51:22;97819.63;;;5.87;63.85
36242;BME280;22283;42.748;12.732;2023-01-28T08:56:23;97824.00;;;6.03;62.92
36242;BME280;22283;42.748;12.732;2023-01-28T09:01:23;97827.94;;;5.96;63.73
36242;BME280;22283;42.748;12.732;2023-01-28T09:06:25;97829.81;;;6.08;62.59
36242;BME280;22283;42.748;12.732;2023-01-28T09:11:27;97829.25;;;6.03;60.34
36242;BME280;22283;42.748;12.732;2023-01-28T09:16:28;97840.13;;;5.97;61.49
36242;BME280;22283;42.748;12.732;2023-01-28T09:21:28;97838.69;;;5.91;59.74
36242;BME280;22283;42.748;12.732;2023-01-28T09:26:29;97844.63;;;5.95;57.79
36242;BME280;22283;42.748;12.732;2023-01-28T09:31:30;97839.09;;;6.13;57.76
36242;BME280;22283;42.748;12.732;2023-01-28T09:36:30;97855.75;;;6.28;56.36
36242;BME280;22283;42.748;12.732;2023-01-28T09:47:11;97844.41;;;6.42;56.48
36242;BME280;22283;42.748;12.732;2023-01-28T09:52:17;97846.28;;;6.54;55.33
36242;BME280;22283;42.748;12.732;2023-01-28T09:57:24;97848.22;;;6.94;55.23
36242;BME280;22283;42.748;12.732;2023-01-28T10:07:32;97849.03;;;7.35;54.56
36242;BME280;22283;42.748;12.732;2023-01-28T10:17:45;97846.06;;;7.27;56.63
36242;BME280;22283;42.748;12.732;2023-01-28T10:23:00;97845.53;;;7.22;55.40
36242;BME280;22283;42.748;12.732;2023-01-28T10:28:13;97842.78;;;7.51;53.57
36242;BME280;22283;42.748;12.732;2023-01-28T10:38:28;97828.56;;;7.41;54.63
36242;BME280;22283;42.748;12.732;2023-01-28T10:43:32;97827.75;;;7.53;55.24
36242;BME280;22283;42.748;12.732;2023-01-28T10:48:41;97824.56;;;7.48;54.17
36242;BME280;22283;42.748;12.732;2023-01-28T10:53:45;97821.75;;;7.24;54.34
36242;BME280;22283;42.748;12.732;2023-01-28T10:59:16;97818.69;;;7.17;53.98
36242;BME280;22283;42.748;12.732;2023-01-28T11:04:14;97813.69;;;7.12;55.30
36242;BME280;22283;42.748;12.732;2023-01-28T11:09:25;97818.94;;;7.12;55.11
36242;BME280;22283;42.748;12.732;2023-01-28T11:14:26;97811.31;;;7.22;54.29
36242;BME280;22283;42.748;12.732;2023-01-28T11:19:32;97815.44;;;7.26;54.35
36242;BME280;22283;42.748;12.732;2023-01-28T11:24:34;97809.16;;;7.29;53.24
36242;BME280;22283;42.748;12.732;2023-01-28T11:29:38;97808.13;;;7.44;51.97
36242;BME280;22283;42.748;12.732;2023-01-28T11:34:50;97805.84;;;7.52;51.07
36242;BME280;22283;42.748;12.732;2023-01-28T11:40:14;97804.09;;;7.78;49.95
36242;BME280;22283;42.748;12.732;2023-01-28T11:50:43;97793.09;;;8.50;48.96
36242;BME280;22283;42.748;12.732;2023-01-28T11:56:48;97788.88;;;8.60;48.54
36242;BME280;22283;42.748;12.732;2023-01-28T12:01:51;97785.50;;;8.95;47.79
36242;BME280;22283;42.748;12.732;2023-01-28T12:07:08;97782.00;;;9.07;47.63
36242;BME280;22283;42.748;12.732;2023-01-28T12:44:24;97778.75;;;8.91;48.56
36242;BME280;22283;42.748;12.732;2023-01-28T12:49:36;97767.47;;;8.89;48.88
36242;BME280;22283;42.748;12.732;2023-01-28T12:55:00;97750.97;;;8.98;48.91
36242;BME280;22283;42.748;12.732;2023-01-28T13:05:20;97762.34;;;9.11;47.24
36242;BME280;22283;42.748;12.732;2023-01-28T13:10:36;97780.41;;;9.28;47.74
36242;BME280;22283;42.748;12.732;2023-01-28T13:15:40;97780.41;;;9.28;47.83
36242;BME280;22283;42.748;12.732;2023-01-28T13:20:50;97777.03;;;9.26;47.49
36242;BME280;22283;42.748;12.732;2023-01-28T13:25:53;97760.19;;;9.16;48.71
36242;BME280;22283;42.748;12.732;2023-01-28T13:31:15;97782.00;;;8.94;49.31
36242;BME280;22283;42.748;12.732;2023-01-28T13:36:26;97773.97;;;8.72;49.32
36242;BME280;22283;42.748;12.732;2023-01-28T13:41:48;97786.31;;;8.71;47.48
36242;BME280;22283;42.748;12.732;2023-01-28T13:46:49;97797.28;;;8.65;49.20
36242;BME280;22283;42.748;12.732;2023-01-28T13:51:57;97788.44;;;8.53;50.09
36242;BME280;22283;42.748;12.732;2023-01-28T14:07:21;97792.19;;;8.88;45.87
36242;BME280;22283;42.748;12.732;2023-01-28T14:17:55;97810.34;;;8.79;46.30
36242;BME280;22283;42.748;12.732;2023-01-28T14:23:05;97825.34;;;8.66;48.75
36242;BME280;22283;42.748;12.732;2023-01-28T14:28:06;97840.13;;;8.56;49.71
36242;BME280;22283;42.748;12.732;2023-01-28T14:33:11;97836.50;;;8.31;50.54
36242;BME280;22283;42.748;12.732;2023-01-28T14:38:15;97838.72;;;8.12;51.37
36242;BME280;22283;42.748;12.732;2023-01-28T14:43:24;97835.19;;;7.73;51.84
36242;BME280;22283;42.748;12.732;2023-01-28T14:59:19;97843.56;;;7.53;53.25
36242;BME280;22283;42.748;12.732;2023-01-28T15:04:39;97858.59;;;7.51;53.11
36242;BME280;22283;42.748;12.732;2023-01-28T15:09:40;97862.31;;;7.34;52.98
36242;BME280;22283;42.748;12.732;2023-01-28T15:14:41;97862.25;;;7.21;52.05
36242;BME280;22283;42.748;12.732;2023-01-28T15:19:42;97858.50;;;7.11;52.86
36242;BME280;22283;42.748;12.732;2023-01-28T15:24:43;97884.28;;;6.92;54.27
36242;BME280;22283;42.748;12.732;2023-01-28T15:29:51;97877.53;;;6.59;54.86
36242;BME280;22283;42.748;12.732;2023-01-28T15:34:53;97879.31;;;6.30;55.44
36242;BME280;22283;42.748;12.732;2023-01-28T15:40:01;97886.38;;;6.13;55.55
36242;BME280;22283;42.748;12.732;2023-01-28T15:45:14;97906.72;;;5.96;57.15
36242;BME280;22283;42.748;12.732;2023-01-28T15:50:21;97909.16;;;5.83;56.74
36242;BME280;22283;42.748;12.732;2023-01-28T16:00:26;97930.09;;;5.68;57.42
36242;BME280;22283;42.748;12.732;2023-01-28T16:05:30;97944.06;;;5.53;57.89
36242;BME280;22283;42.748;12.732;2023-01-28T16:10:38;97936.63;;;5.46;57.62
36242;BME280;22283;42.748;12.732;2023-01-28T16:15:45;97941.97;;;5.28;58.38
36242;BME280;22283;42.748;12.732;2023-01-28T16:20:47;97962.28;;;5.25;58.49
36242;BME280;22283;42.748;12.732;2023-01-28T16:26:05;97973.34;;;5.14;59.07
36242;BME280;22283;42.748;12.732;2023-01-28T16:31:09;97977.28;;;5.05;59.46
36242;BME280;22283;42.748;12.732;2023-01-28T16:36:12;97983.63;;;5.01;59.61
36242;BME280;22283;42.748;12.732;2023-01-28T16:41:21;97990.53;;;4.86;60.12
36242;BME280;22283;42.748;12.732;2023-01-28T16:46:25;98006.75;;;4.77;59.99
36242;BME280;22283;42.748;12.732;2023-01-28T16:51:26;98007.91;;;4.72;60.02
36242;BME280;22283;42.748;12.732;2023-01-28T16:56:27;98014.84;;;4.73;59.82
36242;BME280;22283;42.748;12.732;2023-01-28T17:01:28;98019.38;;;4.69;60.06
36242;BME280;22283;42.748;12.732;2023-01-28T17:06:29;98031.09;;;4.62;60.24
36242;BME280;22283;42.748;12.732;2023-01-28T17:11:30;98047.75;;;4.61;60.45
36242;BME280;22283;42.748;12.732;2023-01-28T17:16:31;98041.13;;;4.54;61.04
36242;BME280;22283;42.748;12.732;2023-01-28T17:21:32;98052.06;;;4.44;61.21
36242;BME280;22283;42.748;12.732;2023-01-28T17:26:33;98062.56;;;4.44;61.17
36242;BME280;22283;42.748;12.732;2023-01-28T17:31:34;98064.84;;;4.51;60.71
36242;BME280;22283;42.748;12.732;2023-01-28T17:36:35;98063.78;;;4.37;61.41
36242;BME280;22283;42.748;12.732;2023-01-28T17:41:36;98075.31;;;4.33;61.71
36242;BME280;22283;42.748;12.732;2023-01-28T17:46:36;98084.72;;;4.37;61.49
36242;BME280;22283;42.748;12.732;2023-01-28T17:51:37;98101.19;;;4.39;61.17
36242;BME280;22283;42.748;12.732;2023-01-28T17:56:38;98106.28;;;4.42;60.77
36242;BME280;22283;42.748;12.732;2023-01-28T18:01:39;98109.16;;;4.38;60.86
36242;BME280;22283;42.748;12.732;2023-01-28T18:06:39;98121.47;;;4.36;61.01
36242;BME280;22283;42.748;12.732;2023-01-28T18:11:40;98118.91;;;4.34;60.67
36242;BME280;22283;42.748;12.732;2023-01-28T18:16:41;98132.94;;;4.33;60.76
36242;BME280;22283;42.748;12.732;2023-01-28T18:21:41;98126.88;;;4.33;60.21
36242;BME280;22283;42.748;12.732;2023-01-28T18:26:42;98135.69;;;4.30;60.47
36242;BME280;22283;42.748;12.732;2023-01-28T18:31:42;98131.84;;;4.20;60.80
36242;BME280;22283;42.748;12.732;2023-01-28T18:36:44;98135.34;;;4.19;60.84
36242;BME280;22283;42.748;12.732;2023-01-28T18:41:45;98146.41;;;4.07;61.17
36242;BME280;22283;42.748;12.732;2023-01-28T18:46:45;98151.09;;;4.00;61.29
36242;BME280;22283;42.748;12.732;2023-01-28T18:51:46;98156.03;;;4.06;61.33
36242;BME280;22283;42.748;12.732;2023-01-28T18:56:47;98163.75;;;3.90;61.48
36242;BME280;22283;42.748;12.732;2023-01-28T19:01:48;98168.56;;;4.00;61.46
36242;BME280;22283;42.748;12.732;2023-01-28T19:06:48;98178.75;;;4.06;60.95
36242;BME280;22283;42.748;12.732;2023-01-28T19:11:49;98182.56;;;4.17;60.45
36242;BME280;22283;42.748;12.732;2023-01-28T19:16:50;98185.78;;;4.24;60.21
36242;BME280;22283;42.748;12.732;2023-01-28T19:21:51;98180.53;;;4.24;59.90
36242;BME280;22283;42.748;12.732;2023-01-28T19:26:52;98177.56;;;4.13;60.55
36242;BME280;22283;42.748;12.732;2023-01-28T19:31:53;98181.78;;;4.15;60.14
36242;BME280;22283;42.748;12.732;2023-01-28T19:36:54;98197.09;;;4.06;61.05
36242;BME280;22283;42.748;12.732;2023-01-28T19:41:54;98199.06;;;4.01;61.71
36242;BME280;22283;42.748;12.732;2023-01-28T19:46:55;98193.00;;;4.00;60.66
36242;BME280;22283;42.748;12.732;2023-01-28T19:51:56;98206.00;;;4.02;61.09
36242;BME280;22283;42.748;12.732;2023-01-28T19:56:57;98220.78;;;4.03;60.61
36242;BME280;22283;42.748;12.732;2023-01-28T20:01:58;98213.63;;;4.06;60.48
36242;BME280;22283;42.748;12.732;2023-01-28T20:06:58;98213.34;;;3.93;61.18
36242;BME280;22283;42.748;12.732;2023-01-28T20:11:59;98223.94;;;3.90;60.98
36242;BME280;22283;42.748;12.732;2023-01-28T20:17:00;98226.53;;;3.92;60.79
36242;BME280;22283;42.748;12.732;2023-01-28T20:22:00;98227.53;;;3.88;60.60
36242;BME280;22283;42.748;12.732;2023-01-28T20:27:01;98235.81;;;3.79;61.25
36242;BME280;22283;42.748;12.732;2023-01-28T20:32:01;98215.00;;;3.57;62.29
36242;BME280;22283;42.748;12.732;2023-01-28T20:37:02;98231.00;;;3.49;63.66
36242;BME280;22283;42.748;12.732;2023-01-28T20:42:05;98241.88;;;2.76;71.07
36242;BME280;22283;42.748;12.732;2023-01-28T20:47:08;98236.75;;;2.29;75.35
36242;BME280;22283;42.748;12.732;2023-01-28T20:52:09;98262.25;;;1.99;77.83
36242;BME280;22283;42.748;12.732;2023-01-28T20:57:09;98265.00;;;1.70;80.81
36242;BME280;22283;42.748;12.732;2023-01-28T21:02:10;98258.81;;;1.48;84.49
36242;BME280;22283;42.748;12.732;2023-01-28T21:07:10;98277.16;;;1.45;85.20
36242;BME280;22283;42.748;12.732;2023-01-28T21:12:12;98279.03;;;1.41;86.52
36242;BME280;22283;42.748;12.732;2023-01-28T21:17:13;98271.53;;;2.06;74.68
36242;BME280;22283;42.748;12.732;2023-01-28T21:22:13;98289.56;;;1.88;79.82
36242;BME280;22283;42.748;12.732;2023-01-28T21:27:14;98284.69;;;1.79;79.11
36242;BME280;22283;42.748;12.732;2023-01-28T21:32:15;98278.47;;;2.54;70.68
36242;BME280;22283;42.748;12.732;2023-01-28T21:37:16;98279.44;;;3.17;65.91
36242;BME280;22283;42.748;12.732;2023-01-28T21:42:21;98287.22;;;2.96;68.29
36242;BME280;22283;42.748;12.732;2023-01-28T21:47:22;98288.66;;;2.60;70.65
36242;BME280;22283;42.748;12.732;2023-01-28T21:52:22;98298.94;;;2.41;72.27
36242;BME280;22283;42.748;12.732;2023-01-28T21:57:23;98291.28;;;2.36;73.31
36242;BME280;22283;42.748;12.732;2023-01-28T22:02:24;98299.94;;;1.65;80.53
36242;BME280;22283;42.748;12.732;2023-01-28T22:07:24;98315.53;;;1.41;80.99
36242;BME280;22283;42.748;12.732;2023-01-28T22:12:25;98310.22;;;2.41;70.62
36242;BME280;22283;42.748;12.732;2023-01-28T22:17:27;98315.44;;;1.69;79.50
36242;BME280;22283;42.748;12.732;2023-01-28T22:22:28;98315.63;;;1.38;82.00
36242;BME280;22283;42.748;12.732;2023-01-28T22:27:28;98331.56;;;1.29;83.23
36242;BME280;22283;42.748;12.732;2023-01-28T22:32:29;98324.41;;;0.81;88.08
36242;BME280;22283;42.748;12.732;2023-01-28T22:37:29;98327.84;;;0.83;86.95
36242;BME280;22283;42.748;12.732;2023-01-28T22:42:30;98329.59;;;0.53;89.05
36242;BME280;22283;42.748;12.732;2023-01-28T22:47:30;98339.41;;;0.43;91.27
36242;BME280;22283;42.748;12.732;2023-01-28T22:52:31;98346.16;;;0.19;93.73
36242;BME280;22283;42.748;12.732;2023-01-28T22:57:32;98344.09;;;0.01;95.94
36242;BME280;22283;42.748;12.732;2023-01-28T23:02:32;98342.41;;;0.00;97.14
36242;BME280;22283;42.748;12.732;2023-01-28T23:07:33;98343.41;;;-0.06;97.78
36242;BME280;22283;42.748;12.732;2023-01-28T23:12:34;98344.59;;;-0.17;99.46
36242;BME280;22283;42.748;12.732;2023-01-28T23:17:34;98338.78;;;-0.27;100.00
36242;BME280;22283;42.748;12.732;2023-01-28T23:22:54;98336.41;;;-0.36;100.00
36242;BME280;22283;42.748;12.732;2023-01-28T23:28:14;98346.09;;;-0.41;100.00
36242;BME280;22283;42.748;12.732;2023-01-28T23:33:15;98344.66;;;-0.53;100.00
36242;BME280;22283;42.748;12.732;2023-01-28T23:38:15;98343.78;;;-0.54;100.00
36242;BME280;22283;42.748;12.732;2023-01-28T23:43:16;98355.09;;;-0.55;100.00
36242;BME280;22283;42.748;12.732;2023-01-28T23:48:17;98349.13;;;-0.60;100.00
36242;BME280;22283;42.748;12.732;2023-01-28T23:53:17;98358.28;;;-0.43;100.00
36242;BME280;22283;42.748;12.732;2023-01-28T23:58:18;98361.41;;;-0.65;100.00
